Time;durP1;ratioP1;P1;durP2;ratioP2;P2;SDS_P1;SDS_P2;PMS_P1;PMS_P2;Temp;Humidity;BMP_temperature;BMP_pressure;BME280_temperature;BME280_humidity;BME280_pressure;Samples;Min_cycle;Max_cycle;Signal;HPM_P1;HPM_P2
2023/12/03 00:01:15;;;;;;;3.27;2.67;;;22.30;54.10;;;;;;5074737;28;20439;-86
2023/12/03 00:03:42;;;;;;;2.27;2.07;;;22.30;54.10;;;;;;5074582;28;20447;-90
2023/12/03 00:06:09;;;;;;;2.70;2.50;;;22.30;54.60;;;;;;5074510;28;20460;-87
2023/12/03 00:08:36;;;;;;;3.63;2.97;;;22.30;54.10;;;;;;5073357;28;20456;-87
2023/12/03 00:11:02;;;;;;;2.23;2.07;;;22.30;54.10;;;;;;5074595;28;20524;-87
2023/12/03 00:13:29;;;;;;;2.77;2.30;;;22.30;54.20;;;;;;5074731;28;20443;-86
2023/12/03 00:15:56;;;;;;;2.60;2.40;;;22.30;54.10;;;;;;5074368;28;20496;-87
2023/12/03 00:18:24;;;;;;;2.67;2.47;;;22.30;54.10;;;;;;5074322;28;20440;-87
2023/12/03 00:20:51;;;;;;;2.70;2.50;;;22.30;54.10;;;;;;5074404;28;20446;-89
2023/12/03 00:23:18;;;;;;;2.13;1.93;;;22.20;54.00;;;;;;5074437;28;21018;-90
2023/12/03 00:25:44;;;;;;;2.80;2.60;;;22.40;54.30;;;;;;5074285;28;20554;-89
2023/12/03 00:28:11;;;;;;;2.73;2.53;;;22.20;54.00;;;;;;5074466;28;20480;-87
2023/12/03 00:30:38;;;;;;;2.60;2.40;;;22.20;54.10;;;;;;5074052;28;20480;-86
2023/12/03 00:33:05;;;;;;;2.40;2.20;;;22.20;54.10;;;;;;5074229;28;20451;-87
2023/12/03 00:35:33;;;;;;;2.70;2.50;;;22.20;54.10;;;;;;5073961;28;20439;-86
2023/12/03 00:38:00;;;;;;;3.47;2.67;;;22.20;54.70;;;;;;5073955;28;20453;-87
2023/12/03 00:40:26;;;;;;;2.50;2.30;;;22.20;54.00;;;;;;5073989;28;20451;-90
2023/12/03 00:42:54;;;;;;;2.70;2.50;;;22.20;54.10;;;;;;5073900;28;20810;-86
2023/12/03 00:45:21;;;;;;;2.80;2.60;;;22.20;54.10;;;;;;5073919;28;20502;-86
2023/12/03 00:47:48;;;;;;;2.90;2.70;;;22.20;54.00;;;;;;5073822;28;20441;-90
2023/12/03 00:50:15;;;;;;;3.13;2.70;;;22.20;54.00;;;;;;5073728;28;20518;-86
2023/12/03 00:52:43;;;;;;;2.97;2.77;;;22.20;53.90;;;;;;5073683;28;20467;-87
2023/12/03 00:55:10;;;;;;;2.47;2.27;;;22.20;54.00;;;;;;5073582;28;20510;-89
2023/12/03 00:57:37;;;;;;;2.20;2.10;;;22.20;54.00;;;;;;5073470;28;20441;-86
2023/12/03 01:00:05;;;;;;;2.67;2.47;;;22.20;54.00;;;;;;5073641;28;20440;-86
2023/12/03 01:02:32;;;;;;;2.27;2.13;;;22.20;53.90;;;;;;5073739;28;20466;-88
2023/12/03 01:04:59;;;;;;;2.60;2.40;;;22.20;53.90;;;;;;5073246;28;20978;-88
2023/12/03 01:07:25;;;;;;;2.40;2.20;;;22.20;54.00;;;;;;5073496;28;20467;-87
2023/12/03 01:09:53;;;;;;;2.40;2.20;;;22.20;53.80;;;;;;5073430;28;20510;-87
2023/12/03 01:12:20;;;;;;;3.00;2.80;;;22.20;54.00;;;;;;5073632;28;20511;-90
2023/12/03 01:14:47;;;;;;;2.17;2.07;;;22.20;53.90;;;;;;5073365;28;20432;-89
2023/12/03 01:17:14;;;;;;;2.13;1.93;;;22.20;53.90;;;;;;5073448;28;20436;-88
2023/12/03 01:19:41;;;;;;;2.77;2.57;;;22.20;53.90;;;;;;5073508;28;20433;-90
2023/12/03 01:22:07;;;;;;;2.97;2.77;;;22.20;53.90;;;;;;5073486;28;20443;-89
2023/12/03 01:24:34;;;;;;;2.60;2.40;;;22.20;53.90;;;;;;5073375;28;20428;-87
2023/12/03 01:27:04;;;;;;;2.83;2.63;;;22.20;54.00;;;;;;5073449;28;20490;-90
2023/12/03 01:29:31;;;;;;;2.60;2.40;;;22.20;54.00;;;;;;5073345;28;20484;-87
2023/12/03 01:31:58;;;;;;;2.80;2.60;;;22.20;53.90;;;;;;5073367;28;20935;-88
2023/12/03 01:34:25;;;;;;;2.43;2.23;;;22.20;53.90;;;;;;5073195;28;20437;-87
2023/12/03 01:36:51;;;;;;;3.00;2.80;;;22.20;53.80;;;;;;5073304;28;20443;-90
2023/12/03 01:39:18;;;;;;;2.33;2.13;;;22.20;53.80;;;;;;5073251;28;20436;-89
2023/12/03 01:41:45;;;;;;;2.47;2.30;;;22.20;53.80;;;;;;5073199;28;20467;-89
2023/12/03 01:44:13;;;;;;;2.43;2.23;;;22.20;53.80;;;;;;5072484;28;20440;-86
2023/12/03 01:46:40;;;;;;;2.80;2.60;;;22.20;53.80;;;;;;5072483;28;20437;-87
2023/12/03 01:49:07;;;;;;;2.50;2.30;;;22.30;53.90;;;;;;5072822;28;20440;-89
2023/12/03 01:51:34;;;;;;;2.50;2.30;;;22.20;53.80;;;;;;5072749;28;20988;-87
2023/12/03 01:54:01;;;;;;;2.60;2.40;;;22.20;53.80;;;;;;5072844;28;20436;-90
2023/12/03 01:56:28;;;;;;;2.57;2.37;;;22.30;53.90;;;;;;5072788;28;20444;-87
2023/12/03 01:58:55;;;;;;;2.60;2.40;;;22.20;53.70;;;;;;5072981;28;20443;-89
2023/12/03 02:01:23;;;;;;;2.70;2.50;;;22.20;53.90;;;;;;5073073;28;20441;-89
2023/12/03 02:03:50;;;;;;;2.33;2.20;;;22.20;53.80;;;;;;5073095;28;20524;-89
2023/12/03 02:06:17;;;;;;;2.63;2.47;;;22.20;53.90;;;;;;5072772;28;20539;-89
2023/12/03 02:08:44;;;;;;;2.40;2.20;;;22.30;54.00;;;;;;5074195;28;20460;-89
2023/12/03 02:11:11;;;;;;;2.70;2.40;;;22.20;53.90;;;;;;5076849;28;20483;-89
2023/12/03 02:13:39;;;;;;;3.10;2.90;;;22.20;53.90;;;;;;5076895;28;20444;-87
2023/12/03 02:16:07;;;;;;;2.70;2.50;;;22.20;53.80;;;;;;5076757;28;20444;-90
2023/12/03 02:18:35;;;;;;;2.83;2.30;;;22.20;53.80;;;;;;5076747;28;20447;-89
2023/12/03 02:21:02;;;;;;;2.50;2.30;;;22.20;53.90;;;;;;5076756;28;20451;-89
2023/12/03 02:23:31;;;;;;;3.27;2.97;;;22.20;54.50;;;;;;5076569;28;20440;-90
2023/12/03 02:25:58;;;;;;;2.63;2.43;;;22.20;53.80;;;;;;5076569;28;20447;-90
2023/12/03 02:28:25;;;;;;;2.73;2.53;;;22.20;53.90;;;;;;5076446;28;20797;-86
2023/12/03 02:30:52;;;;;;;2.73;2.53;;;22.30;53.90;;;;;;5076469;28;21012;-89
2023/12/03 02:33:18;;;;;;;2.63;2.43;;;22.20;53.90;;;;;;5076398;28;20519;-89
2023/12/03 02:35:45;;;;;;;2.30;2.20;;;22.20;53.90;;;;;;5076318;28;20448;-90
2023/12/03 02:38:12;;;;;;;2.70;2.50;;;22.20;53.90;;;;;;5076392;28;20457;-87
2023/12/03 02:40:40;;;;;;;2.20;2.00;;;22.20;53.90;;;;;;5076498;28;20440;-90
2023/12/03 02:43:07;;;;;;;3.07;2.87;;;22.20;53.80;;;;;;5076307;28;20444;-89
2023/12/03 02:45:34;;;;;;;3.17;2.97;;;22.20;53.90;;;;;;5076148;28;20790;-89
2023/12/03 02:48:00;;;;;;;2.70;2.50;;;22.20;53.90;;;;;;5076166;28;20440;-89
2023/12/03 02:50:27;;;;;;;3.53;2.87;;;22.20;53.80;;;;;;5075918;28;20495;-88
2023/12/03 02:52:54;;;;;;;2.57;2.37;;;22.20;53.80;;;;;;5076202;28;20436;-87
2023/12/03 02:55:21;;;;;;;2.73;2.53;;;22.20;53.90;;;;;;5075927;28;20444;-89
2023/12/03 02:57:49;;;;;;;3.03;2.67;;;22.30;54.00;;;;;;5076016;28;20446;-89
2023/12/03 03:00:17;;;;;;;2.87;2.67;;;22.20;53.80;;;;;;5076098;28;20942;-89
2023/12/03 03:02:44;;;;;;;2.90;2.70;;;22.20;53.90;;;;;;5076044;28;20963;-87
2023/12/03 03:05:10;;;;;;;2.67;2.47;;;22.20;53.80;;;;;;5075649;28;20971;-90
2023/12/03 03:07:37;;;;;;;3.40;3.10;;;22.20;53.90;;;;;;5075857;28;20460;-90
2023/12/03 03:10:04;;;;;;;3.57;3.27;;;22.20;54.00;;;;;;5075562;28;20476;-89
2023/12/03 03:12:31;;;;;;;2.90;2.70;;;22.20;54.00;;;;;;5075913;28;20436;-90
2023/12/03 03:14:59;;;;;;;2.70;2.50;;;22.20;53.90;;;;;;5075750;28;20432;-87
2023/12/03 03:17:26;;;;;;;3.10;2.90;;;22.20;53.80;;;;;;5075701;28;20448;-87
2023/12/03 03:19:53;;;;;;;3.03;2.73;;;22.20;54.40;;;;;;5074494;28;20440;-86
2023/12/03 03:22:19;;;;;;;2.50;2.30;;;22.30;53.90;;;;;;5075694;28;20486;-89
2023/12/03 03:24:46;;;;;;;2.80;2.60;;;22.20;53.90;;;;;;5075595;28;20450;-89
2023/12/03 03:27:13;;;;;;;3.03;2.83;;;22.20;53.80;;;;;;5075646;28;20822;-92
2023/12/03 03:29:40;;;;;;;3.27;2.97;;;22.20;53.80;;;;;;5075376;28;20436;-89
2023/12/03 03:32:08;;;;;;;3.00;2.70;;;22.20;53.90;;;;;;5075351;28;20436;-90
2023/12/03 03:34:35;;;;;;;2.80;2.60;;;22.20;53.80;;;;;;5075154;28;20429;-89
2023/12/03 03:37:01;;;;;;;2.70;2.50;;;22.20;53.90;;;;;;5075287;28;20486;-89
2023/12/03 03:39:28;;;;;;;2.93;2.73;;;22.20;53.90;;;;;;5075430;28;20435;-90
2023/12/03 03:41:55;;;;;;;3.50;3.20;;;22.20;53.90;;;;;;5075349;28;20440;-89
2023/12/03 03:44:22;;;;;;;2.90;2.70;;;22.30;54.00;;;;;;5075071;28;20440;-89
2023/12/03 03:46:49;;;;;;;2.80;2.60;;;22.20;53.90;;;;;;5075297;28;20440;-90
2023/12/03 03:49:17;;;;;;;3.03;2.83;;;22.20;54.00;;;;;;5075098;28;20429;-89
2023/12/03 03:51:44;;;;;;;3.30;3.00;;;22.20;54.00;;;;;;5075074;28;20484;-90
2023/12/03 03:54:10;;;;;;;3.17;2.97;;;22.20;53.90;;;;;;5074910;28;20439;-89
2023/12/03 03:56:37;;;;;;;3.10;2.90;;;22.20;53.90;;;;;;5074877;28;20447;-89
2023/12/03 03:59:04;;;;;;;3.07;2.83;;;22.20;53.80;;;;;;5074949;28;20433;-90
2023/12/03 04:01:31;;;;;;;3.13;2.83;;;22.20;53.80;;;;;;5074822;28;20447;-89
2023/12/03 04:03:58;;;;;;;2.90;2.70;;;22.20;53.80;;;;;;5074714;28;20436;-89
2023/12/03 04:06:26;;;;;;;3.00;2.80;;;22.20;53.90;;;;;;5074524;28;20464;-89
2023/12/03 04:08:53;;;;;;;3.57;3.27;;;22.20;53.90;;;;;;5074599;28;20461;-89
2023/12/03 04:11:19;;;;;;;3.00;2.80;;;22.20;53.90;;;;;;5074541;28;20491;-90
2023/12/03 04:13:46;;;;;;;2.77;2.57;;;22.20;53.90;;;;;;5074630;28;20447;-89
2023/12/03 04:16:21;;;;;;;3.10;2.90;;;22.20;53.90;;;;;;5074580;28;20437;-90
2023/12/03 04:18:48;;;;;;;3.13;2.93;;;22.20;53.90;;;;;;5074566;28;20447;-89
2023/12/03 04:21:16;;;;;;;2.60;2.40;;;22.30;54.10;;;;;;5074283;28;20433;-88
2023/12/03 04:23:44;;;;;;;3.03;2.83;;;22.10;53.90;;;;;;5074484;28;20444;-89
2023/12/03 04:26:12;;;;;;;3.30;3.00;;;22.20;53.90;;;;;;5074263;28;20924;-90
2023/12/03 04:28:40;;;;;;;2.83;2.63;;;22.10;54.00;;;;;;5058753;28;20444;-89
2023/12/03 04:31:19;;;;;;;3.73;3.43;;;22.10;53.90;;;;;;5053760;28;20489;-89
2023/12/03 04:33:46;;;;;;;2.73;2.53;;;22.20;54.00;;;;;;5054338;28;20459;-87
2023/12/03 04:36:13;;;;;;;3.93;3.63;;;22.30;54.00;;;;;;5054174;28;20435;-87
2023/12/03 04:38:40;;;;;;;3.07;2.87;;;22.20;53.90;;;;;;5054168;28;20449;-89
2023/12/03 04:41:09;;;;;;;3.10;2.90;;;22.20;54.00;;;;;;5054154;28;20439;-90
2023/12/03 04:43:35;;;;;;;2.87;2.67;;;22.20;53.90;;;;;;5053952;28;20434;-89
2023/12/03 04:46:04;;;;;;;3.17;2.93;;;22.20;53.90;;;;;;5053992;28;20530;-86
2023/12/03 04:48:31;;;;;;;3.03;2.83;;;22.20;53.90;;;;;;5053949;28;20943;-89
2023/12/03 04:50:59;;;;;;;2.70;2.50;;;22.20;53.80;;;;;;5053887;28;20490;-89
2023/12/03 04:53:25;;;;;;;2.80;2.60;;;22.20;53.90;;;;;;5053745;28;20440;-89
2023/12/03 04:55:53;;;;;;;3.17;2.97;;;22.20;53.90;;;;;;5053872;28;20445;-90
2023/12/03 04:58:21;;;;;;;3.03;2.83;;;22.20;53.80;;;;;;5053787;28;20441;-88
2023/12/03 05:00:48;;;;;;;3.10;2.90;;;22.20;53.80;;;;;;5053880;28;20448;-89
2023/12/03 05:03:14;;;;;;;2.80;2.60;;;22.20;53.90;;;;;;5053657;28;20442;-87
2023/12/03 05:05:41;;;;;;;2.50;2.30;;;22.30;53.90;;;;;;5053359;28;20992;-88
2023/12/03 05:08:08;;;;;;;2.43;2.23;;;22.20;53.80;;;;;;5053429;28;20457;-89
2023/12/03 05:10:35;;;;;;;2.40;2.20;;;22.20;53.80;;;;;;5053367;28;20475;-89
2023/12/03 05:13:02;;;;;;;2.90;2.70;;;22.30;53.90;;;;;;5053348;28;20437;-90
2023/12/03 05:15:31;;;;;;;2.93;2.73;;;22.30;53.90;;;;;;5053480;28;20454;-90
2023/12/03 05:17:58;;;;;;;2.27;2.10;;;22.40;53.90;;;;;;5053411;28;20448;-89
2023/12/03 05:20:25;;;;;;;2.23;2.13;;;22.30;53.80;;;;;;5053494;28;20436;-89
2023/12/03 05:22:53;;;;;;;2.70;2.50;;;22.30;53.90;;;;;;5053412;28;20437;-90
2023/12/03 05:25:20;;;;;;;3.00;2.80;;;22.30;53.80;;;;;;5053320;28;20438;-88
2023/12/03 05:27:47;;;;;;;2.43;2.23;;;22.30;53.90;;;;;;5053353;28;20441;-87
2023/12/03 05:30:15;;;;;;;3.00;2.80;;;22.30;53.70;;;;;;5053281;28;20438;-89
2023/12/03 05:32:44;;;;;;;2.70;2.50;;;22.30;53.80;;;;;;5053346;28;20437;-90
2023/12/03 05:35:11;;;;;;;3.03;2.83;;;22.40;53.90;;;;;;5053178;28;20433;-87
2023/12/03 05:37:39;;;;;;;2.97;2.77;;;22.40;53.70;;;;;;5053212;28;20453;-89
2023/12/03 05:40:08;;;;;;;3.03;2.83;;;22.40;53.80;;;;;;5053155;28;20437;-87
2023/12/03 05:42:35;;;;;;;2.77;2.37;;;22.40;53.80;;;;;;5072495;28;20470;-89
2023/12/03 05:45:03;;;;;;;2.53;2.33;;;22.40;53.80;;;;;;5073177;28;20437;-89
2023/12/03 05:47:30;;;;;;;2.17;2.07;;;22.40;53.80;;;;;;5073230;28;20441;-89
2023/12/03 05:49:59;;;;;;;2.23;2.07;;;22.40;53.80;;;;;;5073190;28;20928;-87
2023/12/03 05:52:25;;;;;;;2.20;2.10;;;22.40;53.70;;;;;;5073050;28;20579;-90
2023/12/03 05:54:52;;;;;;;2.80;2.60;;;22.40;53.70;;;;;;5073121;28;20443;-89
2023/12/03 05:57:19;;;;;;;2.93;2.63;;;22.40;53.70;;;;;;5073104;28;20438;-89
2023/12/03 05:59:46;;;;;;;2.13;2.00;;;22.40;53.70;;;;;;5073090;28;20961;-89
2023/12/03 06:02:13;;;;;;;3.20;3.00;;;22.50;53.80;;;;;;5073131;28;20448;-89
2023/12/03 06:04:40;;;;;;;2.63;2.43;;;22.40;53.70;;;;;;5072716;28;20529;-89
2023/12/03 06:07:08;;;;;;;2.70;2.50;;;22.40;53.70;;;;;;5072930;28;20460;-89
2023/12/03 06:09:35;;;;;;;2.57;2.37;;;22.40;53.80;;;;;;5073041;28;20540;-87
2023/12/03 06:12:02;;;;;;;2.70;2.50;;;22.40;53.70;;;;;;5072830;28;20514;-89
2023/12/03 06:14:29;;;;;;;2.60;2.40;;;22.40;53.70;;;;;;5072946;28;20436;-90
2023/12/03 06:16:55;;;;;;;2.33;2.13;;;22.40;53.70;;;;;;5073073;28;20428;-89
2023/12/03 06:19:22;;;;;;;2.43;2.23;;;22.40;53.70;;;;;;5072932;28;20440;-90
2023/12/03 06:21:49;;;;;;;2.43;2.23;;;22.40;53.70;;;;;;5072884;28;20919;-89
2023/12/03 06:24:17;;;;;;;2.30;2.13;;;22.40;53.70;;;;;;5072875;28;20436;-88
2023/12/03 06:26:44;;;;;;;2.33;2.23;;;22.40;53.70;;;;;;5072752;28;20440;-90
2023/12/03 06:29:11;;;;;;;2.50;2.30;;;22.40;53.70;;;;;;5072806;28;20432;-90
2023/12/03 06:31:37;;;;;;;2.50;2.30;;;22.40;53.70;;;;;;5072630;28;21040;-89
2023/12/03 06:34:04;;;;;;;2.57;2.37;;;22.40;53.70;;;;;;5072734;28;20859;-90
2023/12/03 06:36:31;;;;;;;2.80;2.60;;;22.40;53.70;;;;;;5072513;28;20794;-90
2023/12/03 06:38:58;;;;;;;2.77;2.57;;;22.40;53.70;;;;;;5072742;28;20441;-89
2023/12/03 06:41:26;;;;;;;2.87;2.67;;;22.40;53.60;;;;;;5072517;28;20447;-89
2023/12/03 06:43:53;;;;;;;2.40;2.30;;;22.40;53.70;;;;;;5072503;28;20439;-90
2023/12/03 06:46:19;;;;;;;2.40;2.30;;;22.40;53.70;;;;;;5072772;28;20440;-87
2023/12/03 06:48:46;;;;;;;2.10;1.90;;;22.40;53.70;;;;;;5072625;28;20439;-88
2023/12/03 06:51:13;;;;;;;2.40;2.20;;;22.40;53.70;;;;;;5072456;28;20479;-89
2023/12/03 06:53:40;;;;;;;2.70;2.50;;;22.40;53.70;;;;;;5072953;28;20439;-90
2023/12/03 06:56:10;;;;;;;3.20;2.23;;;22.50;53.70;;;;;;5075996;28;20451;-86
2023/12/03 06:58:38;;;;;;;2.27;2.10;;;22.40;53.60;;;;;;5076154;28;20472;-89
2023/12/03 07:01:05;;;;;;;2.07;1.90;;;22.50;53.60;;;;;;5076119;28;20436;-89
2023/12/03 07:03:32;;;;;;;2.87;2.67;;;22.50;53.70;;;;;;5075974;28;20447;-90
2023/12/03 07:06:00;;;;;;;2.00;1.90;;;22.50;53.70;;;;;;5075546;28;20476;-89
2023/12/03 07:08:27;;;;;;;2.60;2.40;;;22.50;53.60;;;;;;5075862;28;20452;-89
2023/12/03 07:10:53;;;;;;;2.77;2.57;;;22.50;53.60;;;;;;5075882;28;20432;-89
2023/12/03 07:13:20;;;;;;;1.90;1.80;;;22.50;53.60;;;;;;5075758;28;21168;-90
2023/12/03 07:15:49;;;;;;;2.30;2.20;;;22.50;54.20;;;;;;5075723;28;20444;-90
2023/12/03 07:18:16;;;;;;;2.30;2.10;;;22.50;53.60;;;;;;5075630;28;20439;-88
2023/12/03 07:20:42;;;;;;;1.97;1.63;;;22.50;53.50;;;;;;5075774;28;20472;-89
2023/12/03 07:23:09;;;;;;;2.00;1.90;;;22.50;53.50;;;;;;5075662;28;20963;-90
2023/12/03 07:25:36;;;;;;;2.53;2.33;;;22.50;53.60;;;;;;5075670;28;20428;-89
2023/12/03 07:28:03;;;;;;;2.37;2.17;;;22.50;53.60;;;;;;5075675;28;20432;-89
2023/12/03 07:30:29;;;;;;;2.30;2.10;;;22.50;53.60;;;;;;5075597;28;20440;-90
2023/12/03 07:32:57;;;;;;;2.67;2.47;;;22.50;53.50;;;;;;5075297;28;20515;-89
2023/12/03 07:35:24;;;;;;;1.87;1.77;;;22.50;53.60;;;;;;5075366;28;20440;-88
2023/12/03 07:37:51;;;;;;;2.30;2.10;;;22.50;53.60;;;;;;5075436;28;20467;-90
2023/12/03 07:40:18;;;;;;;2.20;2.00;;;22.50;53.50;;;;;;5075197;28;20451;-88
2023/12/03 07:42:44;;;;;;;2.07;1.93;;;22.50;53.50;;;;;;5075277;28;20440;-90
2023/12/03 07:45:11;;;;;;;2.33;2.13;;;22.50;53.40;;;;;;5075253;28;20436;-90
2023/12/03 07:47:38;;;;;;;1.90;1.80;;;22.50;53.50;;;;;;5075157;28;20962;-89
2023/12/03 07:50:08;;;;;;;2.37;2.17;;;22.50;53.50;;;;;;5075163;28;20802;-88
2023/12/03 07:52:35;;;;;;;1.90;1.80;;;22.50;53.40;;;;;;5074927;28;20484;-90
2023/12/03 07:55:02;;;;;;;1.97;1.87;;;22.50;53.40;;;;;;5075007;28;20979;-89
2023/12/03 07:57:28;;;;;;;1.97;1.87;;;22.50;53.30;;;;;;5074964;28;20455;-90
2023/12/03 07:59:55;;;;;;;2.50;2.30;;;22.50;53.40;;;;;;5075113;28;20439;-87
2023/12/03 08:02:22;;;;;;;2.03;1.93;;;22.50;53.40;;;;;;5074870;28;20528;-90
2023/12/03 08:04:49;;;;;;;2.20;2.10;;;22.50;53.50;;;;;;5074357;28;20472;-90
2023/12/03 08:07:17;;;;;;;1.80;1.70;;;22.50;53.50;;;;;;5074188;28;20459;-90
2023/12/03 08:09:44;;;;;;;1.60;1.50;;;22.50;53.50;;;;;;5074595;28;20440;-87
2023/12/03 08:12:10;;;;;;;2.33;2.17;;;22.50;53.50;;;;;;5074691;28;20495;-89
2023/12/03 08:14:37;;;;;;;1.90;1.80;;;22.50;53.50;;;;;;5074686;28;20442;-90
2023/12/03 08:17:06;;;;;;;2.20;2.00;;;22.50;53.40;;;;;;5074725;28;20532;-90
2023/12/03 08:19:33;;;;;;;2.40;2.20;;;22.50;53.40;;;;;;5074619;28;20444;-87
2023/12/03 08:21:59;;;;;;;2.10;2.00;;;22.70;53.60;;;;;;5056886;28;20802;-88
2023/12/03 08:24:28;;;;;;;1.90;1.80;;;22.50;53.40;;;;;;5074500;28;20523;-89
2023/12/03 08:26:54;;;;;;;2.10;1.70;;;22.60;54.10;;;;;;5074713;28;20439;-90
2023/12/03 08:29:21;;;;;;;1.93;1.83;;;22.70;53.60;;;;;;5074441;28;20433;-89
2023/12/03 08:31:49;;;;;;;1.90;1.80;;;22.70;53.60;;;;;;5074281;28;20862;-90
2023/12/03 08:34:17;;;;;;;1.87;1.77;;;22.50;53.40;;;;;;5074210;28;20456;-87
2023/12/03 08:36:44;;;;;;;1.50;1.40;;;22.50;53.40;;;;;;5074053;28;20888;-89
2023/12/03 08:39:11;;;;;;;1.83;1.73;;;22.60;53.40;;;;;;5073785;28;20436;-84
2023/12/03 08:41:41;;;;;;;1.73;1.57;;;22.60;53.30;;;;;;5073888;28;20437;-89
2023/12/03 08:44:08;;;;;;;1.83;1.73;;;22.60;53.30;;;;;;5074301;28;20877;-87
2023/12/03 08:46:34;;;;;;;1.70;1.60;;;22.60;53.30;;;;;;5074330;28;20444;-89
2023/12/03 08:49:01;;;;;;;3.10;2.27;;;22.70;53.40;;;;;;5074262;28;20455;-84
2023/12/03 08:51:28;;;;;;;8.17;3.03;;;22.60;53.80;;;;;;5065531;28;20448;-83
2023/12/03 08:53:55;;;;;;;4.80;2.30;;;22.60;53.60;;;;;;5073764;28;20440;-88
2023/12/03 08:56:22;;;;;;;2.57;2.20;;;22.60;54.30;;;;;;5073820;28;20943;-88
2023/12/03 08:58:50;;;;;;;7.80;2.33;;;22.50;53.90;;;;;;5073601;28;20443;-87
2023/12/03 09:01:20;;;;;;;6.53;2.23;;;22.60;54.00;;;;;;5074056;28;20942;-88
2023/12/03 09:03:47;;;;;;;4.00;2.47;;;22.60;54.30;;;;;;5054040;28;20453;-88
2023/12/03 09:06:14;;;;;;;4.70;2.10;;;22.60;54.00;;;;;;5057623;28;20515;-86
2023/12/03 09:08:40;;;;;;;5.63;2.63;;;22.70;54.10;;;;;;5070221;28;20444;-87
2023/12/03 09:11:07;;;;;;;8.27;3.23;;;22.70;54.20;;;;;;5072355;28;20443;-87
2023/12/03 09:13:34;;;;;;;5.63;3.83;;;22.70;54.30;;;;;;5056819;28;20481;-88
2023/12/03 09:16:02;;;;;;;4.30;3.90;;;22.60;54.30;;;;;;5053798;28;20445;-88
2023/12/03 09:18:29;;;;;;;7.30;4.70;;;22.60;54.10;;;;;;5053748;28;20443;-88
2023/12/03 09:20:56;;;;;;;7.37;4.30;;;22.70;54.10;;;;;;5053583;28;20903;-87
2023/12/03 09:23:23;;;;;;;6.07;4.03;;;22.70;54.10;;;;;;5053808;28;20451;-88
2023/12/03 09:25:49;;;;;;;5.17;4.67;;;22.70;54.20;;;;;;5053747;28;20441;-88
2023/12/03 09:28:16;;;;;;;9.67;4.43;;;22.70;54.10;;;;;;5053402;28;20532;-88
2023/12/03 09:30:43;;;;;;;9.27;4.83;;;22.80;54.10;;;;;;5055666;28;20998;-92
2023/12/03 09:33:15;;;;;;;13.60;6.77;;;22.80;53.10;;;;;;5053490;28;20481;-91
2023/12/03 09:35:42;;;;;;;11.23;6.30;;;22.70;48.70;;;;;;5053825;28;20437;-94
2023/12/03 09:38:08;;;;;;;5.77;4.60;;;22.60;48.00;;;;;;5053484;28;20978;-85
2023/12/03 09:40:35;;;;;;;6.63;4.70;;;22.40;51.00;;;;;;5053721;28;20463;-85
2023/12/03 09:43:05;;;;;;;4.37;3.97;;;22.40;52.20;;;;;;5057520;28;20502;-86
2023/12/03 09:45:34;;;;;;;7.23;5.00;;;22.40;52.90;;;;;;5073226;28;20445;-86
2023/12/03 09:48:03;;;;;;;9.53;3.93;;;22.40;52.30;;;;;;5072848;28;20451;-87
2023/12/03 09:50:34;;;;;;;5.23;3.87;;;22.60;52.40;;;;;;5073079;28;20451;-88
2023/12/03 09:53:03;;;;;;;7.47;3.87;;;22.70;52.90;;;;;;5073083;28;20472;-89
2023/12/03 09:55:32;;;;;;;5.23;3.40;;;22.80;52.60;;;;;;5073311;28;20446;-88
2023/12/03 09:58:00;;;;;;;5.30;4.20;;;22.90;52.50;;;;;;5073320;28;20433;-88
2023/12/03 10:00:29;;;;;;;4.33;3.27;;;22.90;52.70;;;;;;5073379;28;20447;-87
2023/12/03 10:02:56;;;;;;;5.33;3.70;;;23.20;52.70;;;;;;5073752;28;20791;-87
2023/12/03 10:05:22;;;;;;;5.07;3.33;;;23.20;52.60;;;;;;5072734;28;20472;-87
2023/12/03 10:07:51;;;;;;;4.57;3.07;;;23.40;52.10;;;;;;5073149;28;20465;-87
2023/12/03 10:10:20;;;;;;;4.00;3.60;;;23.70;52.20;;;;;;5073118;28;20447;-87
2023/12/03 10:12:50;;;;;;;5.10;3.13;;;24.00;52.40;;;;;;5072793;28;20487;-90
2023/12/03 10:15:16;;;;;;;4.20;3.80;;;24.00;52.20;;;;;;5073101;28;20428;-87
2023/12/03 10:17:44;;;;;;;9.70;3.60;;;24.10;52.50;;;;;;5073119;28;20939;-88
2023/12/03 10:20:21;;;;;;;3.97;3.57;;;24.10;52.50;;;;;;5073196;28;20433;-86
2023/12/03 10:22:48;;;;;;;3.43;3.13;;;24.00;51.80;;;;;;5073496;28;20440;-89
2023/12/03 10:25:26;;;;;;;8.37;3.50;;;23.90;51.40;;;;;;5072847;28;20432;-89
2023/12/03 10:27:54;;;;;;;3.20;2.70;;;23.80;51.60;;;;;;5073179;28;20428;-88
2023/12/03 10:30:21;;;;;;;5.63;2.80;;;23.70;51.90;;;;;;5076024;28;20973;-88
2023/12/03 10:32:48;;;;;;;2.77;2.30;;;23.70;52.20;;;;;;5076743;28;20819;-86
2023/12/03 10:35:15;;;;;;;2.97;2.50;;;23.60;52.30;;;;;;5076663;28;20444;-88
2023/12/03 10:37:42;;;;;;;6.13;2.80;;;23.50;52.40;;;;;;5076532;28;20457;-91
2023/12/03 10:40:09;;;;;;;6.83;2.63;;;23.50;52.60;;;;;;5076744;28;20445;-91
2023/12/03 10:42:38;;;;;;;4.47;3.23;;;23.50;52.90;;;;;;5076424;28;20428;-91
2023/12/03 10:45:07;;;;;;;3.70;2.80;;;23.60;53.20;;;;;;5076484;28;20443;-92
2023/12/03 10:47:35;;;;;;;4.40;2.80;;;23.70;53.20;;;;;;5076699;28;20486;-89
2023/12/03 10:50:05;;;;;;;3.60;2.97;;;23.70;52.70;;;;;;5075184;28;20902;-92
2023/12/03 10:52:33;;;;;;;5.73;2.73;;;23.80;52.80;;;;;;5076218;28;20468;-88
2023/12/03 10:55:00;;;;;;;4.90;2.67;;;23.90;52.60;;;;;;5075240;28;20899;-88
2023/12/03 10:57:29;;;;;;;2.97;2.60;;;23.80;52.50;;;;;;5075408;28;20440;-89
2023/12/03 11:00:03;;;;;;;3.20;2.87;;;23.90;52.50;;;;;;5075608;28;20440;-89
2023/12/03 11:02:33;;;;;;;5.03;2.50;;;23.90;52.50;;;;;;5074739;28;20456;-88
2023/12/03 11:05:04;;;;;;;3.97;2.80;;;24.00;52.50;;;;;;5075286;28;20460;-88
2023/12/03 11:07:33;;;;;;;3.60;2.30;;;24.00;53.00;;;;;;5075306;28;20464;-88
2023/12/03 11:10:00;;;;;;;3.00;2.70;;;24.00;52.40;;;;;;5075870;28;20447;-89
2023/12/03 11:12:26;;;;;;;2.53;2.33;;;24.00;52.30;;;;;;5075586;28;20476;-88
2023/12/03 11:14:54;;;;;;;5.10;2.50;;;24.00;52.50;;;;;;5075726;28;20437;-88
2023/12/03 11:17:30;;;;;;;2.67;2.47;;;23.90;53.00;;;;;;5075601;28;20536;-88
2023/12/03 11:20:04;;;;;;;2.60;2.37;;;23.90;52.40;;;;;;5075846;28;20452;-88
2023/12/03 11:22:45;;;;;;;3.00;2.03;;;23.90;52.50;;;;;;5075705;28;20951;-88
2023/12/03 11:25:15;;;;;;;2.23;2.03;;;23.90;52.50;;;;;;5075529;28;20440;-89
2023/12/03 11:27:42;;;;;;;4.70;2.40;;;23.90;52.50;;;;;;5075450;28;20443;-88
2023/12/03 11:30:09;;;;;;;2.43;2.23;;;23.80;52.50;;;;;;5075386;28;20822;-88
2023/12/03 11:32:38;;;;;;;3.10;2.50;;;23.80;52.50;;;;;;5075446;28;20923;-88
2023/12/03 11:35:08;;;;;;;2.10;1.90;;;23.80;52.60;;;;;;5075183;28;20443;-88
2023/12/03 11:37:34;;;;;;;2.70;2.50;;;23.80;52.60;;;;;;5075320;28;20798;-88
2023/12/03 11:40:08;;;;;;;5.00;2.57;;;23.80;52.60;;;;;;5074588;28;20432;-88
2023/12/03 11:42:42;;;;;;;2.90;2.43;;;23.80;52.60;;;;;;5074838;28;20431;-88
2023/12/03 11:45:23;;;;;;;5.20;2.90;;;23.80;52.60;;;;;;5075123;28;20436;-88
2023/12/03 11:48:08;;;;;;;3.17;2.27;;;23.70;52.60;;;;;;5075135;28;20436;-88
2023/12/03 11:50:37;;;;;;;2.23;2.03;;;23.70;52.70;;;;;;5075133;28;20433;-88
2023/12/03 11:53:04;;;;;;;2.60;2.40;;;23.70;52.80;;;;;;5074849;28;20537;-88
2023/12/03 11:55:34;;;;;;;3.73;2.73;;;23.70;52.80;;;;;;5074885;28;20452;-88
2023/12/03 11:58:03;;;;;;;2.33;2.13;;;23.70;52.80;;;;;;5074994;28;20432;-88
2023/12/03 12:00:30;;;;;;;3.50;1.80;;;23.60;52.80;;;;;;5074936;28;20440;-88
2023/12/03 12:02:56;;;;;;;2.30;2.10;;;23.60;52.70;;;;;;5074671;28;20429;-89
2023/12/03 12:05:25;;;;;;;2.90;2.07;;;23.60;52.70;;;;;;5074476;28;20471;-90
2023/12/03 12:08:00;;;;;;;2.80;2.60;;;23.60;52.70;;;;;;5074587;28;20444;-89
2023/12/03 12:10:28;;;;;;;2.50;2.20;;;23.60;52.70;;;;;;5074796;28;20530;-90
2023/12/03 12:12:55;;;;;;;2.43;2.23;;;23.60;52.70;;;;;;5074454;28;20577;-88
2023/12/03 12:15:23;;;;;;;2.10;1.80;;;23.60;52.70;;;;;;5074542;28;20941;-88
2023/12/03 12:17:49;;;;;;;2.60;2.40;;;23.60;52.70;;;;;;5074424;28;20443;-89
2023/12/03 12:20:24;;;;;;;3.13;2.93;;;23.60;52.80;;;;;;5074462;28;20436;-89
2023/12/03 12:22:53;;;;;;;2.70;2.50;;;23.60;52.80;;;;;;5074643;28;20440;-88
2023/12/03 12:25:20;;;;;;;3.10;2.23;;;23.60;52.70;;;;;;5074289;28;20429;-89
2023/12/03 12:27:48;;;;;;;2.57;2.03;;;23.60;52.80;;;;;;5074513;28;20446;-88
2023/12/03 12:30:15;;;;;;;2.83;2.03;;;23.60;52.70;;;;;;5074358;28;20432;-89
2023/12/03 12:32:42;;;;;;;3.00;2.30;;;23.60;52.70;;;;;;5074057;28;20966;-89
2023/12/03 12:35:09;;;;;;;1.80;1.70;;;23.50;52.60;;;;;;5074102;28;20445;-88
2023/12/03 12:37:38;;;;;;;2.33;2.13;;;23.50;52.60;;;;;;5073931;28;20514;-88
2023/12/03 12:40:09;;;;;;;2.43;1.83;;;23.50;52.70;;;;;;5074414;28;20443;-88
2023/12/03 12:42:40;;;;;;;2.30;2.10;;;23.50;52.70;;;;;;5074006;28;20530;-88
2023/12/03 12:45:25;;;;;;;2.33;2.13;;;23.50;52.70;;;;;;5073911;28;20428;-88
2023/12/03 12:47:52;;;;;;;2.63;2.00;;;23.50;52.60;;;;;;5073938;28;20451;-88
2023/12/03 12:50:19;;;;;;;2.43;2.10;;;23.50;52.60;;;;;;5073870;28;20432;-88